createdAt,value
2019-05-21T00:00:11.264Z,0.00
2019-05-21T00:01:11.278Z,0.00
2019-05-21T00:02:11.213Z,0.00
2019-05-21T00:03:11.216Z,0.00
2019-05-21T00:04:11.198Z,0.00
2019-05-21T00:05:11.227Z,0.00
2019-05-21T00:06:11.183Z,0.00
2019-05-21T00:07:11.158Z,0.00
2019-05-21T00:08:11.148Z,0.00
2019-05-21T00:09:11.129Z,0.00
2019-05-21T00:10:11.174Z,0.00
2019-05-21T00:11:11.123Z,0.00
2019-05-21T00:12:11.132Z,0.00
2019-05-21T00:13:11.095Z,0.00
2019-05-21T00:14:11.151Z,0.00
2019-05-21T00:15:11.087Z,0.00
2019-05-21T00:16:11.090Z,0.00
2019-05-21T00:17:11.090Z,0.00
2019-05-21T00:18:11.105Z,0.00
2019-05-21T00:19:11.070Z,0.00
2019-05-21T00:20:11.020Z,0.00
2019-05-21T00:21:11.030Z,0.00
2019-05-21T00:22:10.997Z,0.00
2019-05-21T00:23:10.996Z,0.00
2019-05-21T00:24:10.967Z,0.00
2019-05-21T00:25:10.964Z,0.00
2019-05-21T00:26:11.005Z,0.00
2019-05-21T00:27:10.940Z,0.00
2019-05-21T00:28:10.929Z,0.00
2019-05-21T00:29:10.910Z,0.00
2019-05-21T00:30:10.901Z,0.00
2019-05-21T00:31:10.934Z,0.00
2019-05-21T00:32:10.916Z,0.00
2019-05-21T00:33:10.871Z,0.00
2019-05-21T00:34:10.874Z,0.00
2019-05-21T00:35:10.860Z,0.00
2019-05-21T00:36:10.836Z,0.00
2019-05-21T00:37:10.839Z,0.00
2019-05-21T00:38:10.797Z,0.00
2019-05-21T00:39:10.800Z,0.00
2019-05-21T00:40:10.803Z,0.00
2019-05-21T00:41:10.764Z,0.00
2019-05-21T00:42:10.808Z,0.00
2019-05-21T00:43:10.760Z,0.00
2019-05-21T00:44:10.769Z,0.00
2019-05-21T00:45:10.732Z,0.00
2019-05-21T00:46:10.770Z,0.00
2019-05-21T00:47:10.725Z,0.00
2019-05-21T00:48:10.705Z,0.00
2019-05-21T00:49:10.685Z,0.00
2019-05-21T00:50:10.664Z,0.00
2019-05-21T00:51:10.667Z,0.00
2019-05-21T00:52:10.660Z,0.00
2019-05-21T00:53:10.672Z,0.00
2019-05-21T00:54:10.620Z,0.00
2019-05-21T00:55:10.622Z,0.00
2019-05-21T00:56:10.653Z,0.00
2019-05-21T00:57:10.709Z,0.00
2019-05-21T00:58:10.614Z,0.00
2019-05-21T00:59:10.561Z,0.00
2019-05-21T01:00:10.918Z,0.00
2019-05-21T01:01:10.568Z,0.00
2019-05-21T01:02:10.536Z,0.00
2019-05-21T01:03:10.539Z,0.00
2019-05-21T01:04:10.547Z,0.00
2019-05-21T01:05:10.506Z,0.00
2019-05-21T01:06:10.491Z,0.00
2019-05-21T01:07:10.469Z,0.00
2019-05-21T01:08:10.469Z,0.00
2019-05-21T01:09:10.478Z,0.00
2019-05-21T01:10:10.444Z,0.00
2019-05-21T01:11:10.426Z,0.00
2019-05-21T01:12:10.429Z,0.00
2019-05-21T01:13:10.412Z,0.00
2019-05-21T01:14:10.445Z,0.00
2019-05-21T01:15:10.420Z,0.00
2019-05-21T01:16:10.370Z,0.00
2019-05-21T01:17:10.355Z,0.00
2019-05-21T01:18:10.362Z,0.00
2019-05-21T01:19:10.334Z,0.00
2019-05-21T01:20:10.348Z,0.00
2019-05-21T01:21:10.335Z,0.00
2019-05-21T01:22:10.306Z,0.00
2019-05-21T01:23:10.294Z,0.00
2019-05-21T01:24:10.271Z,0.00
2019-05-21T01:25:10.307Z,0.00
2019-05-21T01:26:10.281Z,0.00
2019-05-21T01:27:10.270Z,0.00
2019-05-21T01:28:10.255Z,0.00
2019-05-21T01:29:10.230Z,0.00
2019-05-21T01:30:10.251Z,0.00
2019-05-21T01:31:10.213Z,0.00
2019-05-21T01:32:10.205Z,0.00
2019-05-21T01:33:10.208Z,0.00
2019-05-21T01:34:11.556Z,0.00
2019-05-21T01:35:17.237Z,0.00
2019-05-21T01:36:10.152Z,0.00
2019-05-21T01:37:10.142Z,0.00
2019-05-21T01:38:10.131Z,0.00
2019-05-21T01:39:10.106Z,0.00
2019-05-21T01:40:10.158Z,0.00
2019-05-21T01:41:10.085Z,0.00
2019-05-21T01:42:10.087Z,0.00
2019-05-21T01:43:10.075Z,0.00
2019-05-21T01:44:10.084Z,0.00
2019-05-21T01:45:10.047Z,0.00
2019-05-21T01:46:10.097Z,0.00
2019-05-21T01:47:10.027Z,0.00
2019-05-21T01:48:10.019Z,0.00
2019-05-21T01:49:10.025Z,0.00
2019-05-21T01:50:10.004Z,0.00
2019-05-21T01:51:10.019Z,0.00
2019-05-21T01:52:09.971Z,0.00
2019-05-21T01:53:09.947Z,0.00
2019-05-21T01:54:09.956Z,0.00
2019-05-21T01:55:09.946Z,0.00
2019-05-21T01:56:09.977Z,0.00
2019-05-21T01:57:09.915Z,0.00
2019-05-21T01:58:09.920Z,0.00
2019-05-21T01:59:09.887Z,0.00
2019-05-21T02:00:09.884Z,0.00
2019-05-21T02:01:09.883Z,0.00
2019-05-21T02:02:09.893Z,0.00
2019-05-21T02:03:09.837Z,0.00
2019-05-21T02:04:09.847Z,0.00
2019-05-21T02:05:09.819Z,0.00
2019-05-21T02:06:09.826Z,0.00
2019-05-21T02:07:09.836Z,0.00
2019-05-21T02:08:09.795Z,0.00
2019-05-21T02:09:09.791Z,0.00
2019-05-21T02:10:09.779Z,0.00
2019-05-21T02:11:09.754Z,0.00
2019-05-21T02:12:10.882Z,0.00
2019-05-21T02:13:09.755Z,0.00
2019-05-21T02:14:09.715Z,0.00
2019-05-21T02:15:09.718Z,0.00
2019-05-21T02:16:09.689Z,0.00
2019-05-21T02:17:09.717Z,0.00
2019-05-21T02:18:09.694Z,0.00
2019-05-21T02:19:09.686Z,0.00
2019-05-21T02:20:09.655Z,0.00
2019-05-21T02:21:09.655Z,0.00
2019-05-21T02:22:09.630Z,0.00
2019-05-21T02:23:09.658Z,0.00
2019-05-21T02:24:09.638Z,0.00
2019-05-21T02:25:09.595Z,0.00
2019-05-21T02:26:09.591Z,0.00
2019-05-21T02:27:09.590Z,0.00
2019-05-21T02:28:09.605Z,0.00
2019-05-21T02:29:09.554Z,0.00
2019-05-21T02:30:09.975Z,0.00
2019-05-21T02:31:09.564Z,0.00
2019-05-21T02:32:09.513Z,0.00
2019-05-21T02:33:09.520Z,0.00
2019-05-21T02:34:09.540Z,0.00
2019-05-21T02:35:09.507Z,0.00
2019-05-21T02:36:09.492Z,0.00
2019-05-21T02:37:09.462Z,0.00
2019-05-21T02:38:09.499Z,0.00
2019-05-21T02:39:09.474Z,0.00
2019-05-21T02:40:09.432Z,0.00
2019-05-21T02:41:09.438Z,0.00
2019-05-21T02:42:09.397Z,0.00
2019-05-21T02:43:09.387Z,0.00
2019-05-21T02:44:09.482Z,0.00
2019-05-21T02:45:09.391Z,0.00
2019-05-21T02:46:09.370Z,0.00
2019-05-21T02:47:09.365Z,0.00
2019-05-21T02:48:09.339Z,0.00
2019-05-21T02:49:09.328Z,0.00
2019-05-21T02:50:09.372Z,0.00
2019-05-21T02:51:09.295Z,0.00
2019-05-21T02:52:09.318Z,0.00
2019-05-21T02:53:09.302Z,0.00
2019-05-21T02:54:09.268Z,0.00
2019-05-21T02:55:09.318Z,0.00
2019-05-21T02:56:09.254Z,0.00
2019-05-21T02:57:09.233Z,0.00
2019-05-21T02:58:09.236Z,0.00
2019-05-21T02:59:09.226Z,0.00
2019-05-21T03:00:09.209Z,0.00
2019-05-21T03:01:09.253Z,0.00
2019-05-21T03:02:09.171Z,0.00
2019-05-21T03:03:09.193Z,0.00
2019-05-21T03:04:09.174Z,0.00
2019-05-21T03:05:09.179Z,0.00
2019-05-21T03:06:14.765Z,0.00
2019-05-21T03:07:10.110Z,0.00
2019-05-21T03:08:09.116Z,0.00
2019-05-21T03:09:09.123Z,0.00
2019-05-21T03:10:09.149Z,0.00
2019-05-21T03:11:09.074Z,0.00
2019-05-21T03:12:09.064Z,0.00
2019-05-21T03:13:09.072Z,0.00
2019-05-21T03:14:09.036Z,0.00
2019-05-21T03:15:09.051Z,0.00
2019-05-21T03:16:09.063Z,0.00
2019-05-21T03:17:09.011Z,0.00
2019-05-21T03:18:08.989Z,0.00
2019-05-21T03:19:09.014Z,0.00
2019-05-21T03:20:08.968Z,0.00
2019-05-21T03:21:09.000Z,0.00
2019-05-21T03:22:08.971Z,0.00
2019-05-21T03:23:08.937Z,0.00
2019-05-21T03:24:09.018Z,0.00
2019-05-21T03:25:08.927Z,0.00
2019-05-21T03:26:08.947Z,0.00
2019-05-21T03:27:08.925Z,0.00
2019-05-21T03:28:08.884Z,0.00
2019-05-21T03:29:08.867Z,0.00
2019-05-21T03:30:08.874Z,0.00
2019-05-21T03:31:08.869Z,0.00
2019-05-21T03:32:08.935Z,0.00
2019-05-21T03:33:08.846Z,0.00
2019-05-21T03:34:08.812Z,0.00
2019-05-21T03:35:08.805Z,0.00
2019-05-21T03:36:08.800Z,0.00
2019-05-21T03:37:08.817Z,0.00
2019-05-21T03:38:08.781Z,0.00
2019-05-21T03:39:08.780Z,0.00
2019-05-21T03:40:08.757Z,0.00
2019-05-21T03:41:08.737Z,0.00
2019-05-21T03:42:08.795Z,0.00
2019-05-21T03:43:08.705Z,0.00
2019-05-21T03:44:08.716Z,0.00
2019-05-21T03:45:08.719Z,0.00
2019-05-21T03:46:08.676Z,0.00
2019-05-21T03:47:08.728Z,0.00
2019-05-21T03:48:08.677Z,0.00
2019-05-21T03:49:08.651Z,0.00
2019-05-21T03:50:08.653Z,0.00
2019-05-21T03:51:08.646Z,0.00
2019-05-21T03:52:08.671Z,0.00
2019-05-21T03:53:08.667Z,0.00
2019-05-21T03:54:08.616Z,0.00
2019-05-21T03:55:08.585Z,0.00
2019-05-21T03:56:08.594Z,0.00
2019-05-21T03:57:08.552Z,0.00
2019-05-21T03:58:08.596Z,0.00
2019-05-21T03:59:08.542Z,0.00
2019-05-21T04:00:08.523Z,0.00
2019-05-21T04:01:08.521Z,0.00
2019-05-21T04:02:08.539Z,0.00
2019-05-21T04:03:08.494Z,0.00
2019-05-21T04:04:08.467Z,0.00
2019-05-21T04:05:08.468Z,0.00
2019-05-21T04:06:08.453Z,0.00
2019-05-21T04:07:08.452Z,0.00
2019-05-21T04:08:08.419Z,0.00
2019-05-21T04:09:08.418Z,0.00
2019-05-21T04:10:08.389Z,0.00
2019-05-21T04:11:08.393Z,0.00
2019-05-21T04:12:08.384Z,0.00
2019-05-21T04:13:08.865Z,0.00
2019-05-21T04:14:08.352Z,0.00
2019-05-21T04:15:08.337Z,0.00
2019-05-21T04:16:08.346Z,0.00
2019-05-21T04:17:08.326Z,0.00
2019-05-21T04:18:08.313Z,0.00
2019-05-21T04:19:08.329Z,0.00
2019-05-21T04:20:08.275Z,0.00
2019-05-21T04:21:08.273Z,0.00
2019-05-21T04:22:08.298Z,0.00
2019-05-21T04:23:08.258Z,0.00
2019-05-21T04:24:09.318Z,0.00
2019-05-21T04:25:08.221Z,0.00
2019-05-21T04:26:08.210Z,0.00
2019-05-21T04:27:08.202Z,0.00
2019-05-21T04:28:08.208Z,0.00
2019-05-21T04:29:08.186Z,0.00
2019-05-21T04:30:11.238Z,0.00
2019-05-21T04:31:08.172Z,5.62
2019-05-21T04:32:08.145Z,0.00
2019-05-21T04:33:08.138Z,5.62
2019-05-21T04:34:08.129Z,5.62
2019-05-21T04:35:08.132Z,5.62
2019-05-21T04:36:08.200Z,5.62
2019-05-21T04:37:11.395Z,5.62
2019-05-21T04:38:08.075Z,5.62
2019-05-21T04:39:08.069Z,5.62
2019-05-21T04:40:08.078Z,5.62
2019-05-21T04:41:08.063Z,5.62
2019-05-21T04:42:08.048Z,5.62
2019-05-21T04:43:08.027Z,5.62
2019-05-21T04:44:08.011Z,5.62
2019-05-21T04:45:08.000Z,5.62
2019-05-21T04:46:08.021Z,5.62
2019-05-21T04:47:07.999Z,5.62
2019-05-21T04:48:07.969Z,11.25
2019-05-21T04:49:07.959Z,11.25
2019-05-21T04:50:07.943Z,11.25
2019-05-21T04:51:07.953Z,11.25
2019-05-21T04:52:07.926Z,11.25
2019-05-21T04:53:08.032Z,11.25
2019-05-21T04:54:07.895Z,5.62
2019-05-21T04:55:07.884Z,5.62
2019-05-21T04:56:07.895Z,5.62
2019-05-21T04:57:07.882Z,11.25
2019-05-21T04:58:07.867Z,5.62
2019-05-21T04:59:07.854Z,5.62
2019-05-21T05:00:07.830Z,5.62
2019-05-21T05:01:07.843Z,5.62
2019-05-21T05:02:07.810Z,5.62
2019-05-21T05:03:07.799Z,5.62
2019-05-21T05:04:07.805Z,5.62
2019-05-21T05:05:07.793Z,11.25
2019-05-21T05:06:07.759Z,11.25
2019-05-21T05:07:07.779Z,16.88
2019-05-21T05:08:07.750Z,16.88
2019-05-21T05:09:07.745Z,22.50
2019-05-21T05:10:07.728Z,16.88
2019-05-21T05:11:07.701Z,11.25
2019-05-21T05:12:07.704Z,11.25
2019-05-21T05:13:07.680Z,11.25
2019-05-21T05:14:07.675Z,11.25
2019-05-21T05:15:07.665Z,11.25
2019-05-21T05:16:07.670Z,16.88
2019-05-21T05:17:07.635Z,16.88
2019-05-21T05:18:07.631Z,16.88
2019-05-21T05:19:07.609Z,16.88
2019-05-21T05:20:07.617Z,22.50
2019-05-21T05:21:07.607Z,22.50
2019-05-21T05:22:07.596Z,22.50
2019-05-21T05:23:07.578Z,22.50
2019-05-21T05:24:07.554Z,22.50
2019-05-21T05:25:07.550Z,16.88
2019-05-21T05:26:07.543Z,16.88
2019-05-21T05:27:07.541Z,16.88
2019-05-21T05:28:07.546Z,16.88
2019-05-21T05:29:07.504Z,16.88
2019-05-21T05:30:07.484Z,22.50
2019-05-21T05:31:07.476Z,11.25
2019-05-21T05:32:07.485Z,11.25
2019-05-21T05:33:07.473Z,16.88
2019-05-21T05:34:07.473Z,16.88
2019-05-21T05:35:07.436Z,11.25
2019-05-21T05:36:07.424Z,16.88
2019-05-21T05:37:07.414Z,22.50
2019-05-21T05:38:07.426Z,16.88
2019-05-21T05:39:07.419Z,22.50
2019-05-21T05:40:07.411Z,22.50
2019-05-21T05:41:07.376Z,22.50
2019-05-21T05:42:07.355Z,22.50
2019-05-21T05:43:07.354Z,22.50
2019-05-21T05:44:07.351Z,16.88
2019-05-21T05:45:07.355Z,16.88
2019-05-21T05:46:07.346Z,11.25
2019-05-21T05:47:07.309Z,11.25
2019-05-21T05:48:07.284Z,11.25
2019-05-21T05:49:07.302Z,5.62
2019-05-21T05:50:07.287Z,11.25
2019-05-21T05:51:07.283Z,11.25
2019-05-21T05:52:07.245Z,5.62
2019-05-21T05:53:07.235Z,5.62
2019-05-21T05:54:07.877Z,5.62
2019-05-21T05:55:07.272Z,5.62
2019-05-21T05:56:07.217Z,5.62
2019-05-21T05:57:07.243Z,5.62
2019-05-21T05:58:07.218Z,11.25
2019-05-21T05:59:07.181Z,16.88
2019-05-21T06:00:07.197Z,11.25
2019-05-21T06:01:07.189Z,16.88
2019-05-21T06:02:07.151Z,28.12
2019-05-21T06:03:07.152Z,22.50
2019-05-21T06:04:07.124Z,22.50
2019-05-21T06:05:07.168Z,16.88
2019-05-21T06:06:07.086Z,22.50
2019-05-21T06:07:07.108Z,22.50
2019-05-21T06:08:07.103Z,16.88
2019-05-21T06:09:07.093Z,22.50
2019-05-21T06:10:07.044Z,16.88
2019-05-21T06:11:07.219Z,16.88
2019-05-21T06:12:07.019Z,5.62
2019-05-21T06:13:07.021Z,5.62
2019-05-21T06:14:07.014Z,5.62
2019-05-21T06:15:07.047Z,5.62
2019-05-21T06:16:06.993Z,11.25
2019-05-21T06:17:06.957Z,5.62
2019-05-21T06:18:06.957Z,5.62
2019-05-21T06:19:06.945Z,11.25
2019-05-21T06:20:06.954Z,11.25
2019-05-21T06:21:06.957Z,16.88
2019-05-21T06:22:06.901Z,22.50
2019-05-21T06:23:06.891Z,28.12
2019-05-21T06:24:06.891Z,16.88
2019-05-21T06:25:07.145Z,22.50
2019-05-21T06:26:06.894Z,16.88
2019-05-21T06:27:06.862Z,22.50
2019-05-21T06:28:06.834Z,22.50
2019-05-21T06:29:06.831Z,28.12
2019-05-21T06:30:06.830Z,28.12
2019-05-21T06:31:06.834Z,22.50
2019-05-21T06:32:06.834Z,22.50
2019-05-21T06:33:06.830Z,28.12
2019-05-21T06:34:06.790Z,22.50
2019-05-21T06:35:06.778Z,28.12
2019-05-21T06:36:06.772Z,22.50
2019-05-21T06:37:06.820Z,22.50
2019-05-21T06:38:17.095Z,22.50
2019-05-21T06:39:06.771Z,28.12
2019-05-21T06:40:06.724Z,28.12
2019-05-21T06:41:06.911Z,22.50
2019-05-21T06:42:06.726Z,22.50
2019-05-21T06:43:06.700Z,28.12
2019-05-21T06:44:06.713Z,33.75
2019-05-21T06:45:06.660Z,39.38
2019-05-21T06:46:06.643Z,33.75
2019-05-21T06:47:06.645Z,39.38
2019-05-21T06:48:06.654Z,39.38
2019-05-21T06:49:06.638Z,39.38
2019-05-21T06:50:06.643Z,39.38
2019-05-21T06:51:06.587Z,39.38
2019-05-21T06:52:06.582Z,39.38
2019-05-21T06:53:06.597Z,39.38
2019-05-21T06:54:06.559Z,39.38
2019-05-21T06:55:06.566Z,28.12
2019-05-21T06:56:07.494Z,22.50
2019-05-21T06:57:06.535Z,28.12
2019-05-21T06:58:06.580Z,28.12
2019-05-21T06:59:06.511Z,33.75
2019-05-21T07:00:06.500Z,45.00
2019-05-21T07:01:06.499Z,50.62
2019-05-21T07:02:06.460Z,45.00
2019-05-21T07:03:06.448Z,56.25
2019-05-21T07:04:06.451Z,50.62
2019-05-21T07:05:06.430Z,61.88
2019-05-21T07:06:06.434Z,61.88
2019-05-21T07:07:06.393Z,61.88
2019-05-21T07:08:06.431Z,56.25
2019-05-21T07:09:06.402Z,56.25
2019-05-21T07:10:07.088Z,56.25
2019-05-21T07:11:06.367Z,56.25
2019-05-21T07:12:06.421Z,50.62
2019-05-21T07:13:06.366Z,50.62
2019-05-21T07:14:06.378Z,50.62
2019-05-21T07:15:06.315Z,50.62
2019-05-21T07:16:06.323Z,45.00
2019-05-21T07:17:06.306Z,50.62
2019-05-21T07:18:06.304Z,50.62
2019-05-21T07:19:06.271Z,56.25
2019-05-21T07:20:06.240Z,56.25
2019-05-21T07:21:07.079Z,56.25
2019-05-21T07:22:12.770Z,61.88
2019-05-21T07:23:06.364Z,61.88
2019-05-21T07:24:06.199Z,61.88
2019-05-21T07:25:06.217Z,61.88
2019-05-21T07:26:06.195Z,56.25
2019-05-21T07:27:06.215Z,56.25
2019-05-21T07:28:06.164Z,56.25
2019-05-21T07:29:06.381Z,56.25
2019-05-21T07:30:06.166Z,56.25
2019-05-21T07:31:06.178Z,56.25
2019-05-21T07:32:06.196Z,56.25
2019-05-21T07:33:06.687Z,56.25
2019-05-21T07:34:07.048Z,56.25
2019-05-21T07:35:06.096Z,61.88
2019-05-21T07:36:06.095Z,61.88
2019-05-21T07:37:06.148Z,56.25
2019-05-21T07:38:06.043Z,45.00
2019-05-21T07:39:06.046Z,50.62
2019-05-21T07:40:06.047Z,50.62
2019-05-21T07:41:06.038Z,56.25
2019-05-21T07:42:06.034Z,56.25
2019-05-21T07:43:06.018Z,67.50
2019-05-21T07:44:05.995Z,61.88
2019-05-21T07:45:06.013Z,67.50
2019-05-21T07:46:05.975Z,73.12
2019-05-21T07:47:06.026Z,73.12
2019-05-21T07:48:05.969Z,73.12
2019-05-21T07:49:05.931Z,73.12
2019-05-21T07:50:05.929Z,73.12
2019-05-21T07:51:05.926Z,67.50
2019-05-21T07:52:05.910Z,67.50
2019-05-21T07:53:05.909Z,50.62
2019-05-21T07:54:05.861Z,45.00
2019-05-21T07:55:05.848Z,45.00
2019-05-21T07:56:05.841Z,45.00
2019-05-21T07:57:05.854Z,45.00
2019-05-21T07:58:05.845Z,39.38
2019-05-21T07:59:05.813Z,33.75
2019-05-21T08:00:05.787Z,28.12
2019-05-21T08:01:05.776Z,33.75
2019-05-21T08:02:05.783Z,33.75
2019-05-21T08:03:05.772Z,33.75
2019-05-21T08:04:05.740Z,33.75
2019-05-21T08:05:06.043Z,28.12
2019-05-21T08:06:05.723Z,22.50
2019-05-21T08:07:05.744Z,28.12
2019-05-21T08:08:05.729Z,39.38
2019-05-21T08:09:13.387Z,33.75
2019-05-21T08:10:06.674Z,39.38
2019-05-21T08:11:05.689Z,39.38
2019-05-21T08:12:27.494Z,45.00
2019-05-21T08:13:06.680Z,45.00
2019-05-21T08:14:05.661Z,33.75
2019-05-21T08:15:05.638Z,28.12
2019-05-21T08:16:05.612Z,39.38
2019-05-21T08:17:05.602Z,39.38
2019-05-21T08:18:05.582Z,39.38
2019-05-21T08:19:05.602Z,39.38
2019-05-21T08:20:09.731Z,28.12
2019-05-21T08:21:05.585Z,39.38
2019-05-21T08:22:05.550Z,39.38
2019-05-21T08:23:05.583Z,45.00
2019-05-21T08:24:05.537Z,56.25
2019-05-21T08:25:05.519Z,50.62
2019-05-21T08:26:05.509Z,50.62
2019-05-21T08:27:05.499Z,50.62
2019-05-21T08:28:05.479Z,50.62
2019-05-21T08:29:05.466Z,50.62
2019-05-21T08:30:05.447Z,67.50
2019-05-21T08:31:05.483Z,61.88
2019-05-21T08:32:05.445Z,61.88
2019-05-21T08:33:05.441Z,78.75
2019-05-21T08:34:05.440Z,67.50
2019-05-21T08:35:05.461Z,78.75
2019-05-21T08:36:05.871Z,78.75
2019-05-21T08:37:05.383Z,73.12
2019-05-21T08:38:06.800Z,78.75
2019-05-21T08:39:05.387Z,78.75
2019-05-21T08:40:05.376Z,73.12
2019-05-21T08:41:05.345Z,78.75
2019-05-21T08:42:05.327Z,73.12
2019-05-21T08:43:05.354Z,67.50
2019-05-21T08:44:05.319Z,56.25
2019-05-21T08:45:05.796Z,61.88
2019-05-21T08:46:05.286Z,56.25
2019-05-21T08:47:05.279Z,56.25
2019-05-21T08:48:05.365Z,50.62
2019-05-21T08:49:05.266Z,50.62
2019-05-21T08:50:05.257Z,61.88
2019-05-21T08:51:05.222Z,61.88
2019-05-21T08:52:05.237Z,73.12
2019-05-21T08:53:05.214Z,78.75
2019-05-21T08:54:05.224Z,67.50
2019-05-21T08:55:05.194Z,50.62
2019-05-21T08:56:05.152Z,56.25
2019-05-21T08:57:05.141Z,56.25
2019-05-21T08:58:07.441Z,45.00
2019-05-21T08:59:05.156Z,56.25
2019-05-21T09:00:05.123Z,61.88
2019-05-21T09:01:05.111Z,61.88
2019-05-21T09:02:05.088Z,61.88
2019-05-21T09:03:05.088Z,67.50
2019-05-21T09:04:05.077Z,56.25
2019-05-21T09:05:05.078Z,61.88
2019-05-21T09:06:05.085Z,73.12
2019-05-21T09:07:05.027Z,78.75
2019-05-21T09:08:05.032Z,84.38
2019-05-21T09:09:05.014Z,73.12
2019-05-21T09:10:04.995Z,90.00
2019-05-21T09:11:05.017Z,84.38
2019-05-21T09:12:04.990Z,90.00
2019-05-21T09:13:04.996Z,90.00
2019-05-21T09:14:05.000Z,73.12
2019-05-21T09:15:04.958Z,73.12
2019-05-21T09:16:05.001Z,73.12
2019-05-21T09:17:04.955Z,84.38
2019-05-21T09:18:04.949Z,73.12
2019-05-21T09:19:04.927Z,73.12
2019-05-21T09:20:04.910Z,78.75
2019-05-21T09:21:04.869Z,67.50
2019-05-21T09:22:04.863Z,67.50
2019-05-21T09:23:04.865Z,84.38
2019-05-21T09:24:04.861Z,61.88
2019-05-21T09:25:05.102Z,67.50
2019-05-21T09:26:04.810Z,67.50
2019-05-21T09:27:04.798Z,67.50
2019-05-21T09:28:04.822Z,67.50
2019-05-21T09:29:04.793Z,78.75
2019-05-21T09:30:04.828Z,73.12
2019-05-21T09:31:04.752Z,67.50
2019-05-21T09:32:04.742Z,56.25
2019-05-21T09:33:04.728Z,73.12
2019-05-21T09:34:04.736Z,73.12
2019-05-21T09:35:04.731Z,67.50
2019-05-21T09:36:04.760Z,78.75
2019-05-21T09:37:18.678Z,61.88
2019-05-21T09:38:04.689Z,61.88
2019-05-21T09:39:04.676Z,61.88
2019-05-21T09:40:04.698Z,67.50
2019-05-21T09:41:04.663Z,61.88
2019-05-21T09:42:04.766Z,67.50
2019-05-21T09:43:04.634Z,61.88
2019-05-21T09:44:04.620Z,61.88
2019-05-21T09:45:04.647Z,50.62
2019-05-21T09:46:04.588Z,67.50
2019-05-21T09:47:04.595Z,61.88
2019-05-21T09:48:04.663Z,61.88
2019-05-21T09:49:04.565Z,73.12
2019-05-21T09:50:04.701Z,73.12
2019-05-21T09:51:04.564Z,73.12
2019-05-21T09:52:04.528Z,84.38
2019-05-21T09:53:04.537Z,73.12
2019-05-21T09:54:04.503Z,61.88
2019-05-21T09:55:04.485Z,56.25
2019-05-21T09:56:04.543Z,73.12
2019-05-21T09:57:04.530Z,67.50
2019-05-21T09:58:04.479Z,67.50
2019-05-21T09:59:04.439Z,78.75
2019-05-21T10:00:04.437Z,56.25
2019-05-21T10:01:04.422Z,45.00
2019-05-21T10:02:04.417Z,73.12
2019-05-21T10:03:04.520Z,73.12
2019-05-21T10:04:04.394Z,73.12
2019-05-21T10:05:04.362Z,61.88
2019-05-21T10:06:04.370Z,61.88
2019-05-21T10:07:04.343Z,61.88
2019-05-21T10:08:04.346Z,56.25
2019-05-21T10:09:04.358Z,50.62
2019-05-21T10:10:04.342Z,56.25
2019-05-21T10:11:04.296Z,73.12
2019-05-21T10:12:04.297Z,73.12
2019-05-21T10:13:04.272Z,90.00
2019-05-21T10:14:04.277Z,84.38
2019-05-21T10:15:04.371Z,84.38
2019-05-21T10:16:04.271Z,84.38
2019-05-21T10:17:04.226Z,84.38
2019-05-21T10:18:04.214Z,67.50
2019-05-21T10:19:04.209Z,56.25
2019-05-21T10:20:04.215Z,56.25
2019-05-21T10:21:04.220Z,73.12
2019-05-21T10:22:04.281Z,78.75
2019-05-21T10:23:04.165Z,78.75
2019-05-21T10:24:04.154Z,56.25
2019-05-21T10:25:04.664Z,84.38
2019-05-21T10:26:04.140Z,84.38
2019-05-21T10:27:04.137Z,78.75
2019-05-21T10:28:04.112Z,61.88
2019-05-21T10:29:04.093Z,67.50
2019-05-21T10:30:04.078Z,73.12
2019-05-21T10:31:04.096Z,84.38
2019-05-21T10:32:04.071Z,73.12
2019-05-21T10:33:04.082Z,67.50
2019-05-21T10:34:04.042Z,73.12
2019-05-21T10:35:04.652Z,67.50
2019-05-21T10:36:04.026Z,78.75
2019-05-21T10:37:04.020Z,67.50
2019-05-21T10:38:04.009Z,67.50
2019-05-21T10:39:03.979Z,61.88
2019-05-21T10:40:03.965Z,67.50
2019-05-21T10:41:03.971Z,56.25
2019-05-21T10:42:03.941Z,56.25
2019-05-21T10:43:03.938Z,61.88
2019-05-21T10:44:03.930Z,50.62
2019-05-21T10:45:03.911Z,50.62
2019-05-21T10:46:03.893Z,61.88
2019-05-21T10:47:03.891Z,73.12
2019-05-21T10:48:03.882Z,61.88
2019-05-21T10:49:03.878Z,61.88
2019-05-21T10:50:03.877Z,78.75
2019-05-21T10:51:03.850Z,90.00
2019-05-21T10:52:03.846Z,67.50
2019-05-21T10:53:03.817Z,56.25
2019-05-21T10:54:03.814Z,50.62
2019-05-21T10:55:03.813Z,61.88
2019-05-21T10:56:03.780Z,67.50
2019-05-21T10:57:03.821Z,50.62
2019-05-21T10:58:03.766Z,61.88
2019-05-21T10:59:03.748Z,61.88
2019-05-21T11:00:03.756Z,50.62
2019-05-21T11:01:03.749Z,56.25
2019-05-21T11:02:03.747Z,50.62
2019-05-21T11:03:03.754Z,56.25
2019-05-21T11:04:03.705Z,61.88
2019-05-21T11:05:03.684Z,50.62
2019-05-21T11:06:10.260Z,56.25
2019-05-21T11:07:03.689Z,56.25
2019-05-21T11:08:22.795Z,67.50
2019-05-21T11:09:04.634Z,61.88
2019-05-21T11:10:03.671Z,45.00
2019-05-21T11:11:03.631Z,50.62
2019-05-21T11:12:03.652Z,61.88
2019-05-21T11:13:03.611Z,61.88
2019-05-21T11:14:03.579Z,56.25
2019-05-21T11:15:03.626Z,56.25
2019-05-21T11:16:03.570Z,61.88
2019-05-21T11:17:03.583Z,45.00
2019-05-21T11:18:11.902Z,56.25
2019-05-21T11:19:04.529Z,39.38
2019-05-21T11:20:03.511Z,61.88
2019-05-21T11:21:03.497Z,56.25
2019-05-21T11:22:03.492Z,56.25
2019-05-21T11:23:03.492Z,45.00
2019-05-21T11:24:03.527Z,61.88
2019-05-21T11:25:03.482Z,67.50
2019-05-21T11:26:03.663Z,61.88
2019-05-21T11:27:04.817Z,56.25
2019-05-21T11:28:06.025Z,73.12
2019-05-21T11:29:03.420Z,78.75
2019-05-21T11:30:03.422Z,78.75
2019-05-21T11:31:03.391Z,78.75
2019-05-21T11:32:03.374Z,67.50
2019-05-21T11:33:03.388Z,67.50
2019-05-21T11:34:03.356Z,67.50
2019-05-21T11:35:03.374Z,78.75
2019-05-21T11:36:03.349Z,67.50
2019-05-21T11:37:03.348Z,67.50
2019-05-21T11:38:03.310Z,61.88
2019-05-21T11:39:03.334Z,78.75
2019-05-21T11:40:03.298Z,73.12
2019-05-21T11:41:03.319Z,101.25
2019-05-21T11:42:03.285Z,106.88
2019-05-21T11:43:03.292Z,106.88
2019-05-21T11:44:03.243Z,90.00
2019-05-21T11:45:03.225Z,129.38
2019-05-21T11:46:03.390Z,118.12
2019-05-21T11:47:03.213Z,101.25
2019-05-21T11:48:03.211Z,90.00
2019-05-21T11:49:03.230Z,73.12
2019-05-21T11:50:03.174Z,73.12
2019-05-21T11:51:03.158Z,84.38
2019-05-21T11:52:03.151Z,67.50
2019-05-21T11:53:03.148Z,73.12
2019-05-21T11:54:03.127Z,84.38
2019-05-21T11:55:03.119Z,67.50
2019-05-21T11:56:03.105Z,61.88
2019-05-21T11:57:03.099Z,78.75
2019-05-21T11:58:03.090Z,67.50
2019-05-21T11:59:03.096Z,84.38
2019-05-21T12:00:03.074Z,78.75
2019-05-21T12:01:03.045Z,78.75
2019-05-21T12:02:03.031Z,95.62
2019-05-21T12:03:03.033Z,101.25
2019-05-21T12:04:03.022Z,95.62
2019-05-21T12:05:03.033Z,106.88
2019-05-21T12:06:03.014Z,112.50
2019-05-21T12:07:03.737Z,106.88
2019-05-21T12:08:02.978Z,78.75
2019-05-21T12:09:02.986Z,73.12
2019-05-21T12:10:02.956Z,73.12
2019-05-21T12:11:02.961Z,73.12
2019-05-21T12:12:02.937Z,95.62
2019-05-21T12:13:02.952Z,90.00
2019-05-21T12:14:02.897Z,95.62
2019-05-21T12:15:02.923Z,78.75
2019-05-21T12:16:02.900Z,84.38
2019-05-21T12:17:02.864Z,73.12
2019-05-21T12:18:02.859Z,61.88
2019-05-21T12:19:02.843Z,101.25
2019-05-21T12:20:02.847Z,90.00
2019-05-21T12:21:02.841Z,61.88
2019-05-21T12:22:02.831Z,78.75
2019-05-21T12:23:02.799Z,84.38
2019-05-21T12:24:02.781Z,78.75
2019-05-21T12:25:02.772Z,101.25
2019-05-21T12:26:02.783Z,95.62
2019-05-21T12:27:02.762Z,101.25
2019-05-21T12:28:02.776Z,73.12
2019-05-21T12:29:02.736Z,101.25
2019-05-21T12:30:02.717Z,90.00
2019-05-21T12:31:02.716Z,90.00
2019-05-21T12:32:02.715Z,84.38
2019-05-21T12:33:02.699Z,78.75
2019-05-21T12:34:02.710Z,90.00
2019-05-21T12:35:02.714Z,95.62
2019-05-21T12:36:02.650Z,95.62
2019-05-21T12:37:02.685Z,101.25
2019-05-21T12:38:02.630Z,118.12
2019-05-21T12:39:13.789Z,95.62
2019-05-21T12:40:03.606Z,101.25
2019-05-21T12:41:02.585Z,106.88
2019-05-21T12:42:02.589Z,118.12
2019-05-21T12:43:02.575Z,101.25
2019-05-21T12:44:02.565Z,101.25
2019-05-21T12:45:02.586Z,101.25
2019-05-21T12:46:02.572Z,112.50
2019-05-21T12:47:02.523Z,101.25
2019-05-21T12:48:02.525Z,95.62
2019-05-21T12:49:02.519Z,95.62
2019-05-21T12:50:02.507Z,78.75
2019-05-21T12:51:02.501Z,78.75
2019-05-21T12:52:02.472Z,90.00
2019-05-21T12:53:02.453Z,73.12
2019-05-21T12:54:02.439Z,73.12
2019-05-21T12:55:02.454Z,73.12
2019-05-21T12:56:02.432Z,90.00
2019-05-21T12:57:02.433Z,78.75
2019-05-21T12:58:02.396Z,73.12
2019-05-21T12:59:02.381Z,78.75
2019-05-21T13:00:02.383Z,73.12
2019-05-21T13:01:02.399Z,73.12